sensor_id;sensor_type;location;lat;lon;timestamp;P1;durP1;ratioP1;P2;durP2;ratioP2
27213;SDS011;14723;55.814;37.460;2023-05-10T00:01:10;15.35;;;8.27;;
27213;SDS011;14723;55.814;37.460;2023-05-10T00:04:16;17.63;;;7.90;;
27213;SDS011;14723;55.814;37.460;2023-05-10T00:07:21;15.25;;;9.20;;
27213;SDS011;14723;55.814;37.460;2023-05-10T00:10:30;14.00;;;8.13;;
27213;SDS011;14723;55.814;37.460;2023-05-10T00:13:35;18.58;;;8.15;;
27213;SDS011;14723;55.814;37.460;2023-05-10T00:16:41;17.33;;;7.65;;
27213;SDS011;14723;55.814;37.460;2023-05-10T00:19:46;17.60;;;8.27;;
27213;SDS011;14723;55.814;37.460;2023-05-10T00:22:52;13.95;;;8.27;;
27213;SDS011;14723;55.814;37.460;2023-05-10T00:26:00;16.33;;;8.48;;
27213;SDS011;14723;55.814;37.460;2023-05-10T00:29:05;21.73;;;8.45;;
27213;SDS011;14723;55.814;37.460;2023-05-10T00:32:11;16.52;;;8.48;;
27213;SDS011;14723;55.814;37.460;2023-05-10T00:35:17;19.77;;;9.82;;
27213;SDS011;14723;55.814;37.460;2023-05-10T00:38:23;15.60;;;7.72;;
27213;SDS011;14723;55.814;37.460;2023-05-10T00:41:31;15.48;;;8.20;;
27213;SDS011;14723;55.814;37.460;2023-05-10T00:44:39;17.55;;;8.40;;
27213;SDS011;14723;55.814;37.460;2023-05-10T00:47:45;21.73;;;8.63;;
27213;SDS011;14723;55.814;37.460;2023-05-10T00:50:51;14.27;;;7.78;;
27213;SDS011;14723;55.814;37.460;2023-05-10T00:53:57;19.25;;;8.32;;
27213;SDS011;14723;55.814;37.460;2023-05-10T00:57:06;16.75;;;8.55;;
27213;SDS011;14723;55.814;37.460;2023-05-10T01:00:12;15.35;;;8.38;;
27213;SDS011;14723;55.814;37.460;2023-05-10T01:03:20;15.38;;;8.13;;
27213;SDS011;14723;55.814;37.460;2023-05-10T01:06:26;20.90;;;8.70;;
27213;SDS011;14723;55.814;37.460;2023-05-10T01:09:31;16.45;;;8.75;;
27213;SDS011;14723;55.814;37.460;2023-05-10T01:12:40;17.00;;;8.77;;
27213;SDS011;14723;55.814;37.460;2023-05-10T01:15:46;18.05;;;8.00;;
27213;SDS011;14723;55.814;37.460;2023-05-10T01:18:52;17.23;;;8.38;;
27213;SDS011;14723;55.814;37.460;2023-05-10T01:22:01;23.85;;;8.75;;
27213;SDS011;14723;55.814;37.460;2023-05-10T01:25:11;15.75;;;7.93;;
27213;SDS011;14723;55.814;37.460;2023-05-10T01:28:28;21.90;;;8.10;;
27213;SDS011;14723;55.814;37.460;2023-05-10T01:31:59;18.88;;;7.70;;
27213;SDS011;14723;55.814;37.460;2023-05-10T01:35:09;18.63;;;8.25;;
27213;SDS011;14723;55.814;37.460;2023-05-10T01:38:16;14.15;;;7.35;;
27213;SDS011;14723;55.814;37.460;2023-05-10T01:41:24;12.95;;;7.88;;
27213;SDS011;14723;55.814;37.460;2023-05-10T01:44:31;15.13;;;8.13;;
27213;SDS011;14723;55.814;37.460;2023-05-10T01:47:43;18.27;;;7.90;;
27213;SDS011;14723;55.814;37.460;2023-05-10T01:50:49;11.52;;;7.43;;
27213;SDS011;14723;55.814;37.460;2023-05-10T01:53:57;15.98;;;8.00;;
27213;SDS011;14723;55.814;37.460;2023-05-10T01:57:05;15.10;;;7.97;;
27213;SDS011;14723;55.814;37.460;2023-05-10T02:00:12;25.38;;;8.75;;
27213;SDS011;14723;55.814;37.460;2023-05-10T02:03:21;14.32;;;7.90;;
27213;SDS011;14723;55.814;37.460;2023-05-10T02:06:28;14.60;;;7.70;;
27213;SDS011;14723;55.814;37.460;2023-05-10T02:09:34;13.38;;;7.78;;
27213;SDS011;14723;55.814;37.460;2023-05-10T02:12:41;17.70;;;8.50;;
27213;SDS011;14723;55.814;37.460;2023-05-10T02:15:48;16.02;;;8.57;;
27213;SDS011;14723;55.814;37.460;2023-05-10T02:18:56;15.73;;;8.40;;
27213;SDS011;14723;55.814;37.460;2023-05-10T02:22:03;16.02;;;8.27;;
27213;SDS011;14723;55.814;37.460;2023-05-10T02:25:08;16.77;;;7.93;;
27213;SDS011;14723;55.814;37.460;2023-05-10T02:28:16;13.55;;;7.72;;
27213;SDS011;14723;55.814;37.460;2023-05-10T02:31:22;13.85;;;8.05;;
27213;SDS011;14723;55.814;37.460;2023-05-10T02:34:31;15.23;;;7.90;;
27213;SDS011;14723;55.814;37.460;2023-05-10T02:37:37;13.20;;;7.57;;
27213;SDS011;14723;55.814;37.460;2023-05-10T02:40:43;17.45;;;8.38;;
27213;SDS011;14723;55.814;37.460;2023-05-10T02:43:50;15.52;;;8.68;;
27213;SDS011;14723;55.814;37.460;2023-05-10T02:46:56;18.17;;;7.70;;
27213;SDS011;14723;55.814;37.460;2023-05-10T02:50:06;17.23;;;7.88;;
27213;SDS011;14723;55.814;37.460;2023-05-10T02:53:14;13.00;;;7.88;;
27213;SDS011;14723;55.814;37.460;2023-05-10T02:56:23;18.00;;;8.02;;
27213;SDS011;14723;55.814;37.460;2023-05-10T02:59:30;13.82;;;7.90;;
27213;SDS011;14723;55.814;37.460;2023-05-10T03:02:36;19.23;;;8.75;;
27213;SDS011;14723;55.814;37.460;2023-05-10T03:05:44;14.68;;;8.15;;
27213;SDS011;14723;55.814;37.460;2023-05-10T03:08:50;17.38;;;8.88;;
27213;SDS011;14723;55.814;37.460;2023-05-10T03:11:56;15.77;;;7.90;;
27213;SDS011;14723;55.814;37.460;2023-05-10T03:15:08;15.68;;;8.30;;
27213;SDS011;14723;55.814;37.460;2023-05-10T03:18:17;14.48;;;8.73;;
27213;SDS011;14723;55.814;37.460;2023-05-10T03:21:28;16.13;;;8.40;;
27213;SDS011;14723;55.814;37.460;2023-05-10T03:24:34;20.02;;;9.35;;
27213;SDS011;14723;55.814;37.460;2023-05-10T03:27:41;20.08;;;8.43;;
27213;SDS011;14723;55.814;37.460;2023-05-10T03:30:48;17.63;;;9.32;;
27213;SDS011;14723;55.814;37.460;2023-05-10T03:33:54;18.75;;;10.02;;
27213;SDS011;14723;55.814;37.460;2023-05-10T03:37:04;21.88;;;9.85;;
27213;SDS011;14723;55.814;37.460;2023-05-10T03:40:10;18.63;;;9.77;;
27213;SDS011;14723;55.814;37.460;2023-05-10T03:43:17;16.10;;;9.30;;
27213;SDS011;14723;55.814;37.460;2023-05-10T03:46:22;21.73;;;9.35;;
27213;SDS011;14723;55.814;37.460;2023-05-10T03:49:29;17.45;;;9.45;;
27213;SDS011;14723;55.814;37.460;2023-05-10T03:52:37;18.30;;;9.32;;
27213;SDS011;14723;55.814;37.460;2023-05-10T03:55:43;19.23;;;8.45;;
27213;SDS011;14723;55.814;37.460;2023-05-10T03:58:49;15.15;;;8.60;;
27213;SDS011;14723;55.814;37.460;2023-05-10T04:01:54;16.55;;;8.77;;
27213;SDS011;14723;55.814;37.460;2023-05-10T04:04:59;18.98;;;9.60;;
27213;SDS011;14723;55.814;37.460;2023-05-10T04:08:08;19.00;;;9.52;;
27213;SDS011;14723;55.814;37.460;2023-05-10T04:11:13;17.10;;;9.63;;
27213;SDS011;14723;55.814;37.460;2023-05-10T04:14:19;19.30;;;10.38;;
27213;SDS011;14723;55.814;37.460;2023-05-10T04:17:24;19.17;;;9.38;;
27213;SDS011;14723;55.814;37.460;2023-05-10T04:20:31;16.58;;;8.85;;
27213;SDS011;14723;55.814;37.460;2023-05-10T04:23:39;20.60;;;9.73;;
27213;SDS011;14723;55.814;37.460;2023-05-10T04:29:50;19.40;;;10.80;;
27213;SDS011;14723;55.814;37.460;2023-05-10T04:32:56;18.60;;;9.80;;
27213;SDS011;14723;55.814;37.460;2023-05-10T04:36:02;21.85;;;9.93;;
27213;SDS011;14723;55.814;37.460;2023-05-10T04:39:10;22.73;;;10.68;;
27213;SDS011;14723;55.814;37.460;2023-05-10T04:42:16;18.10;;;9.93;;
27213;SDS011;14723;55.814;37.460;2023-05-10T04:45:21;16.10;;;9.55;;
27213;SDS011;14723;55.814;37.460;2023-05-10T04:48:27;18.67;;;9.98;;
27213;SDS011;14723;55.814;37.460;2023-05-10T04:51:33;20.15;;;9.23;;
27213;SDS011;14723;55.814;37.460;2023-05-10T04:54:41;18.90;;;8.85;;
27213;SDS011;14723;55.814;37.460;2023-05-10T04:57:46;16.85;;;9.00;;
27213;SDS011;14723;55.814;37.460;2023-05-10T05:00:51;15.32;;;8.43;;
27213;SDS011;14723;55.814;37.460;2023-05-10T05:03:57;16.02;;;8.68;;
27213;SDS011;14723;55.814;37.460;2023-05-10T05:07:02;16.02;;;8.18;;
27213;SDS011;14723;55.814;37.460;2023-05-10T05:10:10;17.45;;;8.13;;
27213;SDS011;14723;55.814;37.460;2023-05-10T05:13:16;14.75;;;7.63;;
27213;SDS011;14723;55.814;37.460;2023-05-10T05:16:22;14.00;;;7.50;;
27213;SDS011;14723;55.814;37.460;2023-05-10T05:19:27;12.98;;;7.25;;
27213;SDS011;14723;55.814;37.460;2023-05-10T05:22:33;14.00;;;6.90;;
27213;SDS011;14723;55.814;37.460;2023-05-10T05:25:41;12.90;;;7.18;;
27213;SDS011;14723;55.814;37.460;2023-05-10T05:28:46;12.25;;;8.13;;
27213;SDS011;14723;55.814;37.460;2023-05-10T05:31:54;15.80;;;7.45;;
27213;SDS011;14723;55.814;37.460;2023-05-10T05:35:00;15.02;;;8.18;;
27213;SDS011;14723;55.814;37.460;2023-05-10T05:38:06;14.48;;;8.27;;
27213;SDS011;14723;55.814;37.460;2023-05-10T05:41:14;15.18;;;7.35;;
27213;SDS011;14723;55.814;37.460;2023-05-10T05:44:19;16.15;;;6.90;;
27213;SDS011;14723;55.814;37.460;2023-05-10T05:47:25;11.35;;;7.40;;
27213;SDS011;14723;55.814;37.460;2023-05-10T05:50:31;13.32;;;7.80;;
27213;SDS011;14723;55.814;37.460;2023-05-10T05:53:36;12.95;;;7.20;;
27213;SDS011;14723;55.814;37.460;2023-05-10T05:56:44;16.80;;;7.95;;
27213;SDS011;14723;55.814;37.460;2023-05-10T05:59:50;20.52;;;7.28;;
27213;SDS011;14723;55.814;37.460;2023-05-10T06:02:56;20.30;;;7.82;;
27213;SDS011;14723;55.814;37.460;2023-05-10T06:06:01;17.42;;;7.65;;
27213;SDS011;14723;55.814;37.460;2023-05-10T06:09:07;14.88;;;7.38;;
27213;SDS011;14723;55.814;37.460;2023-05-10T06:12:15;17.15;;;7.55;;
27213;SDS011;14723;55.814;37.460;2023-05-10T06:15:20;23.98;;;7.70;;
27213;SDS011;14723;55.814;37.460;2023-05-10T06:18:26;19.00;;;7.35;;
27213;SDS011;14723;55.814;37.460;2023-05-10T06:21:31;23.15;;;7.38;;
27213;SDS011;14723;55.814;37.460;2023-05-10T06:24:36;17.50;;;6.85;;
27213;SDS011;14723;55.814;37.460;2023-05-10T06:27:45;15.85;;;6.25;;
27213;SDS011;14723;55.814;37.460;2023-05-10T06:30:54;12.75;;;6.32;;
27213;SDS011;14723;55.814;37.460;2023-05-10T06:34:00;16.52;;;5.82;;
27213;SDS011;14723;55.814;37.460;2023-05-10T06:37:05;11.23;;;6.25;;
27213;SDS011;14723;55.814;37.460;2023-05-10T06:40:11;10.48;;;5.40;;
27213;SDS011;14723;55.814;37.460;2023-05-10T06:43:19;12.55;;;5.65;;
27213;SDS011;14723;55.814;37.460;2023-05-10T06:46:24;11.10;;;5.15;;
27213;SDS011;14723;55.814;37.460;2023-05-10T06:49:30;13.55;;;5.43;;
27213;SDS011;14723;55.814;37.460;2023-05-10T06:52:35;14.40;;;5.68;;
27213;SDS011;14723;55.814;37.460;2023-05-10T06:55:41;12.90;;;5.22;;
27213;SDS011;14723;55.814;37.460;2023-05-10T06:58:49;14.70;;;4.97;;
27213;SDS011;14723;55.814;37.460;2023-05-10T07:01:55;15.65;;;4.72;;
27213;SDS011;14723;55.814;37.460;2023-05-10T07:05:00;10.75;;;5.88;;
27213;SDS011;14723;55.814;37.460;2023-05-10T07:08:06;10.77;;;5.05;;
27213;SDS011;14723;55.814;37.460;2023-05-10T07:11:11;14.35;;;4.63;;
27213;SDS011;14723;55.814;37.460;2023-05-10T07:14:19;8.50;;;4.00;;
27213;SDS011;14723;55.814;37.460;2023-05-10T07:17:25;10.77;;;3.83;;
27213;SDS011;14723;55.814;37.460;2023-05-10T07:20:30;8.07;;;4.53;;
27213;SDS011;14723;55.814;37.460;2023-05-10T07:23:36;17.88;;;4.45;;
27213;SDS011;14723;55.814;37.460;2023-05-10T07:26:43;11.30;;;4.22;;
27213;SDS011;14723;55.814;37.460;2023-05-10T07:29:51;9.70;;;3.92;;
27213;SDS011;14723;55.814;37.460;2023-05-10T07:32:57;8.60;;;4.47;;
27213;SDS011;14723;55.814;37.460;2023-05-10T07:36:03;9.45;;;3.80;;
27213;SDS011;14723;55.814;37.460;2023-05-10T07:39:08;12.13;;;4.32;;
27213;SDS011;14723;55.814;37.460;2023-05-10T07:45:34;7.68;;;3.33;;
27213;SDS011;14723;55.814;37.460;2023-05-10T07:48:40;6.22;;;2.95;;
27213;SDS011;14723;55.814;37.460;2023-05-10T07:51:45;8.10;;;2.83;;
27213;SDS011;14723;55.814;37.460;2023-05-10T07:54:51;10.27;;;3.38;;
27213;SDS011;14723;55.814;37.460;2023-05-10T07:57:56;11.90;;;3.78;;
27213;SDS011;14723;55.814;37.460;2023-05-10T08:01:06;6.20;;;3.28;;
27213;SDS011;14723;55.814;37.460;2023-05-10T08:07:17;7.95;;;2.60;;
27213;SDS011;14723;55.814;37.460;2023-05-10T08:10:23;7.05;;;2.70;;
27213;SDS011;14723;55.814;37.460;2023-05-10T08:13:29;11.60;;;3.20;;
27213;SDS011;14723;55.814;37.460;2023-05-10T08:16:37;5.80;;;2.40;;
27213;SDS011;14723;55.814;37.460;2023-05-10T08:19:42;4.53;;;2.40;;
27213;SDS011;14723;55.814;37.460;2023-05-10T08:22:48;5.78;;;2.63;;
27213;SDS011;14723;55.814;37.460;2023-05-10T08:25:53;6.53;;;2.95;;
27213;SDS011;14723;55.814;37.460;2023-05-10T08:28:59;4.90;;;2.60;;
27213;SDS011;14723;55.814;37.460;2023-05-10T08:32:07;6.55;;;2.90;;
27213;SDS011;14723;55.814;37.460;2023-05-10T08:35:12;8.52;;;2.33;;
27213;SDS011;14723;55.814;37.460;2023-05-10T08:38:18;11.88;;;2.92;;
27213;SDS011;14723;55.814;37.460;2023-05-10T08:41:24;6.30;;;2.60;;
27213;SDS011;14723;55.814;37.460;2023-05-10T08:44:29;8.02;;;2.53;;
27213;SDS011;14723;55.814;37.460;2023-05-10T08:47:38;7.40;;;2.45;;
27213;SDS011;14723;55.814;37.460;2023-05-10T08:50:44;7.07;;;2.63;;
27213;SDS011;14723;55.814;37.460;2023-05-10T08:53:50;6.35;;;2.47;;
27213;SDS011;14723;55.814;37.460;2023-05-10T08:56:55;4.07;;;2.08;;
27213;SDS011;14723;55.814;37.460;2023-05-10T09:00:01;5.93;;;2.33;;
27213;SDS011;14723;55.814;37.460;2023-05-10T09:03:10;8.90;;;2.70;;
27213;SDS011;14723;55.814;37.460;2023-05-10T09:06:16;6.20;;;2.80;;
27213;SDS011;14723;55.814;37.460;2023-05-10T09:09:22;6.53;;;3.45;;
27213;SDS011;14723;55.814;37.460;2023-05-10T09:12:29;4.25;;;2.50;;
27213;SDS011;14723;55.814;37.460;2023-05-10T09:15:34;4.72;;;2.35;;
27213;SDS011;14723;55.814;37.460;2023-05-10T09:18:42;3.67;;;2.08;;
27213;SDS011;14723;55.814;37.460;2023-05-10T09:21:47;4.40;;;1.92;;
27213;SDS011;14723;55.814;37.460;2023-05-10T09:25:03;4.63;;;2.22;;
27213;SDS011;14723;55.814;37.460;2023-05-10T09:28:09;6.35;;;2.40;;
27213;SDS011;14723;55.814;37.460;2023-05-10T09:31:15;3.17;;;2.20;;
27213;SDS011;14723;55.814;37.460;2023-05-10T09:34:28;3.55;;;2.03;;
27213;SDS011;14723;55.814;37.460;2023-05-10T09:37:34;9.23;;;2.78;;
27213;SDS011;14723;55.814;37.460;2023-05-10T09:40:39;4.82;;;2.35;;
27213;SDS011;14723;55.814;37.460;2023-05-10T09:43:45;8.88;;;2.85;;
27213;SDS011;14723;55.814;37.460;2023-05-10T09:46:50;4.50;;;2.50;;
27213;SDS011;14723;55.814;37.460;2023-05-10T09:50:00;5.82;;;2.45;;
27213;SDS011;14723;55.814;37.460;2023-05-10T09:53:08;9.07;;;3.05;;
27213;SDS011;14723;55.814;37.460;2023-05-10T09:56:13;4.03;;;2.15;;
27213;SDS011;14723;55.814;37.460;2023-05-10T09:59:18;4.68;;;2.20;;
27213;SDS011;14723;55.814;37.460;2023-05-10T10:02:28;4.18;;;2.55;;
27213;SDS011;14723;55.814;37.460;2023-05-10T10:05:36;6.45;;;2.60;;
27213;SDS011;14723;55.814;37.460;2023-05-10T10:08:45;5.72;;;2.30;;
27213;SDS011;14723;55.814;37.460;2023-05-10T10:11:51;5.20;;;2.50;;
27213;SDS011;14723;55.814;37.460;2023-05-10T10:14:56;4.15;;;2.47;;
27213;SDS011;14723;55.814;37.460;2023-05-10T10:18:06;4.80;;;2.22;;
27213;SDS011;14723;55.814;37.460;2023-05-10T10:21:15;5.43;;;2.63;;
27213;SDS011;14723;55.814;37.460;2023-05-10T10:24:22;4.10;;;2.33;;
27213;SDS011;14723;55.814;37.460;2023-05-10T10:27:30;5.88;;;2.28;;
27213;SDS011;14723;55.814;37.460;2023-05-10T10:30:39;8.30;;;2.22;;
27213;SDS011;14723;55.814;37.460;2023-05-10T10:33:51;5.55;;;2.42;;
27213;SDS011;14723;55.814;37.460;2023-05-10T10:37:06;5.15;;;2.53;;
27213;SDS011;14723;55.814;37.460;2023-05-10T10:40:27;4.78;;;2.33;;
27213;SDS011;14723;55.814;37.460;2023-05-10T10:43:36;13.25;;;3.13;;
27213;SDS011;14723;55.814;37.460;2023-05-10T10:50:03;6.00;;;2.30;;
27213;SDS011;14723;55.814;37.460;2023-05-10T10:53:12;9.30;;;2.83;;
27213;SDS011;14723;55.814;37.460;2023-05-10T10:56:18;4.35;;;2.70;;
27213;SDS011;14723;55.814;37.460;2023-05-10T10:59:26;4.47;;;2.05;;
27213;SDS011;14723;55.814;37.460;2023-05-10T11:02:32;5.03;;;2.55;;
27213;SDS011;14723;55.814;37.460;2023-05-10T11:05:39;2.88;;;2.33;;
27213;SDS011;14723;55.814;37.460;2023-05-10T11:08:47;5.05;;;2.63;;
27213;SDS011;14723;55.814;37.460;2023-05-10T11:11:54;6.07;;;2.40;;
27213;SDS011;14723;55.814;37.460;2023-05-10T11:15:00;4.47;;;2.05;;
27213;SDS011;14723;55.814;37.460;2023-05-10T11:21:33;6.50;;;2.28;;
27213;SDS011;14723;55.814;37.460;2023-05-10T11:24:41;5.43;;;2.20;;
27213;SDS011;14723;55.814;37.460;2023-05-10T11:28:01;6.50;;;2.35;;
27213;SDS011;14723;55.814;37.460;2023-05-10T11:31:07;3.70;;;2.15;;
27213;SDS011;14723;55.814;37.460;2023-05-10T11:34:22;4.57;;;2.10;;
27213;SDS011;14723;55.814;37.460;2023-05-10T11:37:28;3.92;;;2.25;;
27213;SDS011;14723;55.814;37.460;2023-05-10T11:40:41;2.50;;;1.92;;
27213;SDS011;14723;55.814;37.460;2023-05-10T11:43:46;4.30;;;2.30;;
27213;SDS011;14723;55.814;37.460;2023-05-10T11:46:52;4.13;;;2.20;;
27213;SDS011;14723;55.814;37.460;2023-05-10T11:49:59;5.15;;;2.28;;
27213;SDS011;14723;55.814;37.460;2023-05-10T11:53:05;2.83;;;1.90;;
27213;SDS011;14723;55.814;37.460;2023-05-10T11:56:13;3.25;;;2.30;;
27213;SDS011;14723;55.814;37.460;2023-05-10T11:59:19;3.08;;;2.05;;
27213;SDS011;14723;55.814;37.460;2023-05-10T12:02:24;7.40;;;2.33;;
27213;SDS011;14723;55.814;37.460;2023-05-10T12:05:31;2.45;;;1.92;;
27213;SDS011;14723;55.814;37.460;2023-05-10T12:08:37;7.20;;;1.98;;
27213;SDS011;14723;55.814;37.460;2023-05-10T12:11:54;5.20;;;2.10;;
27213;SDS011;14723;55.814;37.460;2023-05-10T12:15:00;4.13;;;2.30;;
27213;SDS011;14723;55.814;37.460;2023-05-10T12:18:07;4.72;;;2.22;;
27213;SDS011;14723;55.814;37.460;2023-05-10T12:21:13;6.82;;;2.47;;
27213;SDS011;14723;55.814;37.460;2023-05-10T12:24:20;8.23;;;2.20;;
27213;SDS011;14723;55.814;37.460;2023-05-10T12:27:33;2.80;;;2.10;;
27213;SDS011;14723;55.814;37.460;2023-05-10T12:30:42;3.67;;;2.33;;
27213;SDS011;14723;55.814;37.460;2023-05-10T12:33:48;3.22;;;1.88;;
27213;SDS011;14723;55.814;37.460;2023-05-10T12:36:57;9.65;;;2.33;;
27213;SDS011;14723;55.814;37.460;2023-05-10T12:40:03;5.47;;;2.88;;
27213;SDS011;14723;55.814;37.460;2023-05-10T12:43:12;3.50;;;2.15;;
27213;SDS011;14723;55.814;37.460;2023-05-10T12:46:18;3.00;;;2.28;;
27213;SDS011;14723;55.814;37.460;2023-05-10T12:49:24;9.15;;;2.35;;
27213;SDS011;14723;55.814;37.460;2023-05-10T12:52:30;2.75;;;1.98;;
27213;SDS011;14723;55.814;37.460;2023-05-10T12:55:36;6.43;;;2.50;;
27213;SDS011;14723;55.814;37.460;2023-05-10T12:58:44;4.07;;;2.30;;
27213;SDS011;14723;55.814;37.460;2023-05-10T13:04:55;6.32;;;2.42;;
27213;SDS011;14723;55.814;37.460;2023-05-10T13:08:00;3.00;;;2.08;;
27213;SDS011;14723;55.814;37.460;2023-05-10T13:11:06;4.10;;;2.13;;
27213;SDS011;14723;55.814;37.460;2023-05-10T13:14:15;3.88;;;2.55;;
27213;SDS011;14723;55.814;37.460;2023-05-10T13:17:22;7.18;;;2.88;;
27213;SDS011;14723;55.814;37.460;2023-05-10T13:20:27;5.25;;;2.00;;
27213;SDS011;14723;55.814;37.460;2023-05-10T13:23:33;6.57;;;2.80;;
27213;SDS011;14723;55.814;37.460;2023-05-10T13:26:38;4.97;;;2.08;;
27213;SDS011;14723;55.814;37.460;2023-05-10T13:29:46;4.65;;;2.00;;
27213;SDS011;14723;55.814;37.460;2023-05-10T13:32:52;8.35;;;2.67;;
27213;SDS011;14723;55.814;37.460;2023-05-10T13:35:58;4.55;;;2.40;;
27213;SDS011;14723;55.814;37.460;2023-05-10T13:39:04;6.13;;;2.58;;
27213;SDS011;14723;55.814;37.460;2023-05-10T13:42:09;8.52;;;2.40;;
27213;SDS011;14723;55.814;37.460;2023-05-10T13:45:17;4.13;;;2.33;;
27213;SDS011;14723;55.814;37.460;2023-05-10T13:48:23;4.30;;;2.38;;
27213;SDS011;14723;55.814;37.460;2023-05-10T13:51:29;4.18;;;2.08;;
27213;SDS011;14723;55.814;37.460;2023-05-10T13:54:34;3.15;;;2.20;;
27213;SDS011;14723;55.814;37.460;2023-05-10T13:57:40;3.30;;;2.00;;
27213;SDS011;14723;55.814;37.460;2023-05-10T14:00:48;2.90;;;2.17;;
27213;SDS011;14723;55.814;37.460;2023-05-10T14:03:54;2.78;;;2.08;;
27213;SDS011;14723;55.814;37.460;2023-05-10T14:06:59;3.70;;;2.10;;
27213;SDS011;14723;55.814;37.460;2023-05-10T14:10:05;3.22;;;2.17;;
27213;SDS011;14723;55.814;37.460;2023-05-10T14:13:11;2.55;;;2.10;;
27213;SDS011;14723;55.814;37.460;2023-05-10T14:16:19;6.38;;;2.58;;
27213;SDS011;14723;55.814;37.460;2023-05-10T14:19:24;3.90;;;2.58;;
27213;SDS011;14723;55.814;37.460;2023-05-10T14:22:30;3.50;;;2.55;;
27213;SDS011;14723;55.814;37.460;2023-05-10T14:25:35;6.53;;;2.38;;
27213;SDS011;14723;55.814;37.460;2023-05-10T14:28:41;4.03;;;2.05;;
27213;SDS011;14723;55.814;37.460;2023-05-10T14:31:49;6.00;;;2.60;;
27213;SDS011;14723;55.814;37.460;2023-05-10T14:38:01;8.98;;;2.30;;
27213;SDS011;14723;55.814;37.460;2023-05-10T14:41:07;3.92;;;2.20;;
27213;SDS011;14723;55.814;37.460;2023-05-10T14:44:16;3.78;;;2.10;;
27213;SDS011;14723;55.814;37.460;2023-05-10T14:47:24;5.30;;;2.95;;
27213;SDS011;14723;55.814;37.460;2023-05-10T14:50:29;9.20;;;3.20;;
27213;SDS011;14723;55.814;37.460;2023-05-10T14:53:38;7.10;;;2.47;;
27213;SDS011;14723;55.814;37.460;2023-05-10T14:56:43;3.78;;;2.20;;
27213;SDS011;14723;55.814;37.460;2023-05-10T14:59:51;4.47;;;2.23;;
27213;SDS011;14723;55.814;37.460;2023-05-10T15:02:59;4.40;;;2.63;;
27213;SDS011;14723;55.814;37.460;2023-05-10T15:06:07;5.82;;;2.22;;
27213;SDS011;14723;55.814;37.460;2023-05-10T15:09:12;5.97;;;2.40;;
27213;SDS011;14723;55.814;37.460;2023-05-10T15:12:18;8.05;;;2.92;;
27213;SDS011;14723;55.814;37.460;2023-05-10T15:15:24;8.85;;;3.47;;
27213;SDS011;14723;55.814;37.460;2023-05-10T15:18:32;5.63;;;2.55;;
27213;SDS011;14723;55.814;37.460;2023-05-10T15:21:37;8.40;;;2.47;;
27213;SDS011;14723;55.814;37.460;2023-05-10T15:24:46;8.32;;;2.35;;
27213;SDS011;14723;55.814;37.460;2023-05-10T15:27:51;6.07;;;2.45;;
27213;SDS011;14723;55.814;37.460;2023-05-10T15:30:57;10.70;;;2.95;;
27213;SDS011;14723;55.814;37.460;2023-05-10T15:34:05;4.78;;;2.45;;
27213;SDS011;14723;55.814;37.460;2023-05-10T15:40:16;5.38;;;2.50;;
27213;SDS011;14723;55.814;37.460;2023-05-10T15:43:21;4.80;;;2.55;;
27213;SDS011;14723;55.814;37.460;2023-05-10T15:46:27;8.93;;;2.65;;
27213;SDS011;14723;55.814;37.460;2023-05-10T15:49:35;6.85;;;2.92;;
27213;SDS011;14723;55.814;37.460;2023-05-10T15:52:40;8.52;;;3.35;;
27213;SDS011;14723;55.814;37.460;2023-05-10T15:55:46;6.95;;;2.70;;
27213;SDS011;14723;55.814;37.460;2023-05-10T15:58:51;8.45;;;2.42;;
27213;SDS011;14723;55.814;37.460;2023-05-10T16:01:57;5.05;;;2.97;;
27213;SDS011;14723;55.814;37.460;2023-05-10T16:05:08;3.63;;;2.42;;
27213;SDS011;14723;55.814;37.460;2023-05-10T16:08:15;5.30;;;2.97;;
27213;SDS011;14723;55.814;37.460;2023-05-10T16:11:20;9.52;;;3.53;;
27213;SDS011;14723;55.814;37.460;2023-05-10T16:14:25;11.98;;;3.33;;
27213;SDS011;14723;55.814;37.460;2023-05-10T16:17:31;10.38;;;2.85;;
27213;SDS011;14723;55.814;37.460;2023-05-10T16:20:39;4.57;;;2.92;;
27213;SDS011;14723;55.814;37.460;2023-05-10T16:23:45;9.40;;;3.47;;
27213;SDS011;14723;55.814;37.460;2023-05-10T16:26:51;14.52;;;3.20;;
27213;SDS011;14723;55.814;37.460;2023-05-10T16:29:57;8.82;;;2.92;;
27213;SDS011;14723;55.814;37.460;2023-05-10T16:33:06;8.15;;;3.30;;
27213;SDS011;14723;55.814;37.460;2023-05-10T16:36:14;8.15;;;3.30;;
27213;SDS011;14723;55.814;37.460;2023-05-10T16:39:20;9.00;;;3.75;;
27213;SDS011;14723;55.814;37.460;2023-05-10T16:42:26;9.50;;;3.17;;
27213;SDS011;14723;55.814;37.460;2023-05-10T16:45:32;10.38;;;3.42;;
27213;SDS011;14723;55.814;37.460;2023-05-10T16:48:38;8.52;;;3.38;;
27213;SDS011;14723;55.814;37.460;2023-05-10T16:51:48;8.85;;;3.30;;
27213;SDS011;14723;55.814;37.460;2023-05-10T16:54:53;14.18;;;3.70;;
27213;SDS011;14723;55.814;37.460;2023-05-10T16:57:58;7.32;;;3.28;;
27213;SDS011;14723;55.814;37.460;2023-05-10T17:01:04;8.70;;;3.80;;
27213;SDS011;14723;55.814;37.460;2023-05-10T17:04:10;8.05;;;3.30;;
27213;SDS011;14723;55.814;37.460;2023-05-10T17:07:19;13.43;;;4.13;;
27213;SDS011;14723;55.814;37.460;2023-05-10T17:10:26;7.32;;;3.20;;
27213;SDS011;14723;55.814;37.460;2023-05-10T17:13:32;14.35;;;5.68;;
27213;SDS011;14723;55.814;37.460;2023-05-10T17:16:37;18.35;;;6.32;;
27213;SDS011;14723;55.814;37.460;2023-05-10T17:19:44;10.52;;;4.80;;
27213;SDS011;14723;55.814;37.460;2023-05-10T17:22:52;9.68;;;4.03;;
27213;SDS011;14723;55.814;37.460;2023-05-10T17:25:58;12.73;;;4.88;;
27213;SDS011;14723;55.814;37.460;2023-05-10T17:29:04;13.60;;;3.85;;
27213;SDS011;14723;55.814;37.460;2023-05-10T17:32:09;17.13;;;4.78;;
27213;SDS011;14723;55.814;37.460;2023-05-10T17:35:15;15.98;;;3.78;;
27213;SDS011;14723;55.814;37.460;2023-05-10T17:38:23;9.60;;;3.75;;
27213;SDS011;14723;55.814;37.460;2023-05-10T17:41:29;17.58;;;4.03;;
27213;SDS011;14723;55.814;37.460;2023-05-10T17:44:35;8.32;;;3.83;;
27213;SDS011;14723;55.814;37.460;2023-05-10T17:47:40;16.08;;;4.45;;
27213;SDS011;14723;55.814;37.460;2023-05-10T17:50:47;19.27;;;4.57;;
27213;SDS011;14723;55.814;37.460;2023-05-10T17:53:55;14.50;;;4.32;;
27213;SDS011;14723;55.814;37.460;2023-05-10T18:00:07;18.70;;;6.28;;
27213;SDS011;14723;55.814;37.460;2023-05-10T18:03:12;9.25;;;4.20;;
27213;SDS011;14723;55.814;37.460;2023-05-10T18:06:18;10.63;;;4.47;;
27213;SDS011;14723;55.814;37.460;2023-05-10T18:09:26;13.55;;;4.60;;
27213;SDS011;14723;55.814;37.460;2023-05-10T18:12:32;7.57;;;4.57;;
27213;SDS011;14723;55.814;37.460;2023-05-10T18:15:37;12.45;;;5.15;;
27213;SDS011;14723;55.814;37.460;2023-05-10T18:18:43;24.27;;;6.43;;
27213;SDS011;14723;55.814;37.460;2023-05-10T18:21:49;23.85;;;5.78;;
27213;SDS011;14723;55.814;37.460;2023-05-10T18:24:57;15.65;;;5.38;;
27213;SDS011;14723;55.814;37.460;2023-05-10T18:28:04;12.98;;;5.03;;
27213;SDS011;14723;55.814;37.460;2023-05-10T18:31:10;12.68;;;4.93;;
27213;SDS011;14723;55.814;37.460;2023-05-10T18:34:16;18.42;;;5.55;;
27213;SDS011;14723;55.814;37.460;2023-05-10T18:37:22;24.45;;;8.57;;
27213;SDS011;14723;55.814;37.460;2023-05-10T18:40:30;14.80;;;5.30;;
27213;SDS011;14723;55.814;37.460;2023-05-10T18:43:36;13.05;;;5.45;;
27213;SDS011;14723;55.814;37.460;2023-05-10T18:46:43;14.75;;;5.45;;
27213;SDS011;14723;55.814;37.460;2023-05-10T18:49:48;21.23;;;6.43;;